首页
METAR-TAF:

METAR-TAF

机场 :

图勒空军基地

图勒, 格陵兰

纬度: 76-32N, 经度: 068-42W, 海拔: 77米

当前天气观测

该预报发布于1小时和3分钟前的05:56 UTC
风速3节,风向
温度 -3°C
湿度 93%
气压 1023 hPa
能见度10公里或以上
阴天层高于3100英尺

METAR: BGTL 190556Z AUTO 01003KT 9999 OVC031 M03/M04 A3022 RMK AO2 UPB26E38 SLP219 P0000 60000 T10281039 11012 21029 53002 TSNO $

时间: 03:59 (06:59 UTC)

预报

该预报发布于13小时和59分钟前的17:00 UTC
预报有效从17日的 17点(UTC)到 18日的 23点(UTC)
风速6节,风向多变
能见度10公里或以上
阴天层高于1500英尺
成为
从 17日的 20点(UTC)到 17日的 21点(UTC)
风速9节,风向西
能見度: 8000
阴天层高于1500英尺
小雪
成为
从 18日的 05点(UTC)到 18日的 06点(UTC)
风速6节,风向多变
能見度: 5000
多云层高于1000英尺
小雪
成为
从 18日的 19点(UTC)到 18日的 20点(UTC)
风速9节,风向西
能見度: 2009
多云层高于800英尺
小雪

TAF: BGTL 171700Z 1717/1823 VRB06KT 9999 OVC015 620153 QNH3013INS BECMG 1720/1721 28009KT 8000 -SN OVC015 620153 QNH3013INS BECMG 1805/1806 VRB06KT 5000 -SN BKN010 620103 QNH3023INS BECMG 1819/1820 27009KT 5000 -SN BKN008 620083 QNH3023INS TXM01/1717Z TNM04/1806Z LAST NO AMDS AFT 1719 NEXT 2009

超过4000个机场的气象观测和天气预报(METAR&TAF报告)。

可查询的气象台以黄色和红色小点在地图上表示。

将鼠标移到小点上方,可查看气象台名称。

然后点击查看天气观测和预报。

如需切换地图:点击带黑十字的绿色按钮放大地图;点击带横线的绿色按钮缩小地图;或者点击绿色箭头查看邻近地区的地图。


METAR-TAF: